Time;durP1;ratioP1;P1;durP2;ratioP2;P2;SDS_P1;SDS_P2;PMS_P1;PMS_P2;Temp;Humidity;BMP_temperature;BMP_pressure;BME280_temperature;BME280_humidity;BME280_pressure;Samples;Min_cycle;Max_cycle;Signal;HPM_P1;HPM_P2
2021/01/30 00:02:17;;;;;;;52.33;32.88;;;;;;;3.27;63.35;99998.34;5031083;28;20336;-70
2021/01/30 00:04:43;;;;;;;50.53;32.90;;;;;;;3.29;63.17;100013.88;5031895;28;20056;-70
2021/01/30 00:07:09;;;;;;;49.97;32.25;;;;;;;3.27;63.22;100016.50;5031977;28;20049;-70
2021/01/30 00:09:35;;;;;;;46.90;31.55;;;;;;;3.29;63.44;100010.44;5032038;28;20045;-70
2021/01/30 00:12:02;;;;;;;49.00;34.15;;;;;;;3.29;63.57;100018.22;5033202;28;20045;-70
2021/01/30 00:14:34;;;;;;;49.75;34.22;;;;;;;3.29;63.59;100003.50;5035201;28;20052;-70
2021/01/30 00:17:03;;;;;;;46.72;31.83;;;;;;;3.27;63.80;100010.50;5035465;28;20469;-70
2021/01/30 00:19:30;;;;;;;48.22;31.95;;;;;;;3.26;63.67;100009.66;5035544;28;20124;-70
2021/01/30 00:22:00;;;;;;;46.47;33.53;;;;;;;3.26;63.46;100012.25;5034711;28;20061;-69
2021/01/30 00:24:28;;;;;;;68.63;35.20;;;;;;;3.24;63.50;100013.22;5035338;28;20049;-70
2021/01/30 00:26:57;;;;;;;50.88;33.67;;;;;;;3.23;63.47;100001.97;5035318;28;20057;-70
2021/01/30 00:29:25;;;;;;;50.50;34.15;;;;;;;3.23;63.62;99988.19;5035636;28;20091;-70
2021/01/30 00:31:52;;;;;;;52.38;35.58;;;;;;;3.24;63.54;99995.06;5035169;28;20046;-70
2021/01/30 00:34:21;;;;;;;60.22;39.42;;;;;;;3.24;63.70;100014.03;5035305;28;20128;-70
2021/01/30 00:37:01;;;;;;;65.78;40.45;;;;;;;3.25;63.90;100030.44;5035100;28;20052;-70
2021/01/30 00:39:27;;;;;;;53.60;37.80;;;;;;;3.25;63.96;100025.25;5035206;28;20474;-70
2021/01/30 00:41:53;;;;;;;56.78;36.85;;;;;;;3.24;63.99;100023.59;5035180;28;20057;-70
2021/01/30 00:44:19;;;;;;;54.45;36.58;;;;;;;3.21;64.03;100003.81;5035023;28;20042;-70
2021/01/30 00:46:49;;;;;;;56.10;36.08;;;;;;;3.22;64.01;100004.63;5034937;28;20049;-70
2021/01/30 00:49:17;;;;;;;54.58;36.65;;;;;;;3.21;63.91;99989.97;5034416;28;20081;-70
2021/01/30 00:51:43;;;;;;;54.25;36.08;;;;;;;3.22;64.06;100000.28;5034962;28;20049;-69
2021/01/30 00:54:10;;;;;;;55.25;36.30;;;;;;;3.22;64.04;100005.47;5034931;28;20548;-70
2021/01/30 00:56:36;;;;;;;57.35;36.55;;;;;;;3.22;64.09;100002.88;5034723;28;20053;-70
2021/01/30 00:59:02;;;;;;;55.53;35.63;;;;;;;3.19;64.10;100008.19;5034848;28;20075;-70
2021/01/30 01:01:38;;;;;;;56.10;37.40;;;;;;;3.19;64.12;100004.78;5034535;28;20045;-70
2021/01/30 01:04:05;;;;;;;55.38;36.08;;;;;;;3.18;64.28;99992.69;5034681;28;20045;-70
2021/01/30 01:06:32;;;;;;;59.80;37.15;;;;;;;3.17;64.22;100001.38;5034469;28;20048;-70
2021/01/30 01:09:00;;;;;;;50.67;34.92;;;;;;;3.15;64.23;100006.63;5034803;28;20045;-70
2021/01/30 01:11:26;;;;;;;56.95;36.50;;;;;;;3.14;64.14;99996.31;5034559;28;20045;-70
2021/01/30 01:13:52;;;;;;;52.00;36.22;;;;;;;3.11;63.96;99997.25;5034762;28;20046;-70
2021/01/30 01:16:18;;;;;;;57.55;37.72;;;;;;;3.10;64.15;99995.59;5034501;28;20045;-70
2021/01/30 01:18:46;;;;;;;56.38;39.30;;;;;;;3.11;64.13;100005.03;5034262;28;20418;-70
2021/01/30 01:21:12;;;;;;;58.35;39.00;;;;;;;3.10;64.14;100011.97;5034541;28;20046;-70
2021/01/30 01:23:43;;;;;;;57.22;37.97;;;;;;;3.10;64.35;100006.78;5033858;28;20060;-70
2021/01/30 01:26:10;;;;;;;57.60;37.53;;;;;;;3.12;64.52;100011.06;5034396;28;20052;-70
2021/01/30 01:28:36;;;;;;;55.75;36.58;;;;;;;3.12;64.63;100000.72;5034184;28;20049;-70
2021/01/30 01:31:07;;;;;;;58.83;36.65;;;;;;;3.12;64.68;100006.72;5034250;28;20410;-70
2021/01/30 01:33:33;;;;;;;60.20;36.67;;;;;;;3.13;64.68;100016.19;5034372;28;20053;-70
2021/01/30 01:35:59;;;;;;;53.10;35.78;;;;;;;3.13;65.05;100010.19;5034226;28;20487;-70
2021/01/30 01:38:26;;;;;;;54.25;35.58;;;;;;;3.12;64.77;100011.91;5033911;28;20049;-70
2021/01/30 01:40:53;;;;;;;52.08;35.30;;;;;;;3.13;64.79;100016.19;5034162;28;20053;-70
2021/01/30 01:43:24;;;;;;;54.35;34.80;;;;;;;3.12;64.72;100011.06;5034059;28;20416;-70
2021/01/30 01:45:59;;;;;;;51.20;35.42;;;;;;;3.10;64.85;100016.31;5033787;28;20088;-70
2021/01/30 01:48:29;;;;;;;56.50;36.20;;;;;;;3.07;64.66;100014.69;5033829;28;20060;-70
2021/01/30 01:50:56;;;;;;;53.42;35.50;;;;;;;3.05;64.66;100000.09;5033857;28;20414;-70
2021/01/30 01:53:27;;;;;;;56.95;36.45;;;;;;;3.04;64.87;100003.59;5033779;28;20049;-70
2021/01/30 01:56:01;;;;;;;54.13;35.10;;;;;;;3.04;64.96;100009.59;5033775;28;20056;-70
2021/01/30 01:58:32;;;;;;;53.25;34.33;;;;;;;3.05;65.03;100002.69;5033604;28;20052;-70
2021/01/30 02:00:58;;;;;;;55.92;35.53;;;;;;;3.03;64.88;99992.34;5033544;28;20049;-70
2021/01/30 02:03:26;;;;;;;52.53;34.58;;;;;;;3.05;65.29;99985.38;5033818;28;20049;-70
2021/01/30 02:05:53;;;;;;;51.53;35.58;;;;;;;3.05;65.26;99972.41;5033481;28;20478;-70
2021/01/30 02:08:20;;;;;;;51.20;33.47;;;;;;;3.06;65.31;99987.06;5033455;28;20049;-70
2021/01/30 02:10:50;;;;;;;48.25;33.22;;;;;;;3.08;65.33;99994.78;5033403;28;20053;-70
2021/01/30 02:13:24;;;;;;;50.17;32.35;;;;;;;3.07;65.42;99980.13;5033536;28;20482;-70
2021/01/30 02:15:57;;;;;;;53.63;33.42;;;;;;;3.05;65.43;99972.41;5033128;28;20049;-70
2021/01/30 02:18:49;;;;;;;53.78;33.03;;;;;;;3.06;65.50;99976.72;5032331;28;20056;-70
2021/01/30 02:21:36;;;;;;;50.03;32.05;;;;;;;3.05;65.54;99975.00;5032775;28;20045;-70
2021/01/30 02:24:29;;;;;;;51.67;33.28;;;;;;;3.06;65.36;99983.63;5033132;28;20060;-69
2021/01/30 02:27:26;;;;;;;52.70;34.45;;;;;;;3.05;65.34;99969.84;5033097;28;20042;-70
2021/01/30 02:30:28;;;;;;;54.58;34.30;;;;;;;3.05;65.63;99974.19;5033374;28;20046;-70
2021/01/30 02:33:41;;;;;;;55.67;35.40;;;;;;;3.04;65.34;99977.66;5033331;28;20049;-70
2021/01/30 02:36:12;;;;;;;49.63;32.08;;;;;;;3.00;65.22;99976.94;5031359;28;20049;-70
2021/01/30 02:38:44;;;;;;;48.28;30.85;;;;;;;2.98;65.18;99991.69;5032801;28;20042;-70
2021/01/30 02:41:20;;;;;;;43.20;30.08;;;;;;;2.90;64.72;99983.38;5032824;28;20046;-70
2021/01/30 02:43:49;;;;;;;57.78;33.30;;;;;;;2.88;64.62;99975.66;5032735;28;20057;-70
2021/01/30 02:46:30;;;;;;;50.78;32.92;;;;;;;2.87;64.69;99975.69;5032749;28;20041;-70
2021/01/30 02:49:03;;;;;;;53.10;33.28;;;;;;;2.85;64.39;99972.34;5032709;28;20079;-70
2021/01/30 02:51:38;;;;;;;50.28;32.35;;;;;;;2.78;64.29;99962.19;5032688;28;20057;-70
2021/01/30 02:54:06;;;;;;;49.28;33.00;;;;;;;2.75;64.02;99971.81;5032810;28;20539;-70
2021/01/30 02:56:32;;;;;;;51.80;33.22;;;;;;;2.74;64.17;99971.00;5032693;28;20049;-70
2021/01/30 02:59:05;;;;;;;57.22;34.75;;;;;;;2.72;63.96;99974.53;5032667;28;20549;-70
2021/01/30 03:01:38;;;;;;;46.55;31.83;;;;;;;2.68;63.56;99985.88;5032529;28;20054;-70
2021/01/30 03:04:12;;;;;;;48.35;32.40;;;;;;;2.55;63.14;99999.31;5032767;28;20382;-70
2021/01/30 03:07:09;;;;;;;48.85;32.08;;;;;;;2.41;63.17;100011.88;5032543;28;20048;-70
2021/01/30 03:09:41;;;;;;;52.05;34.17;;;;;;;2.31;63.50;100011.38;5032406;28;20045;-70
2021/01/30 03:12:15;;;;;;;60.13;36.75;;;;;;;2.30;63.65;100009.66;5032543;28;20111;-70
2021/01/30 03:15:08;;;;;;;55.35;34.13;;;;;;;2.35;63.71;100001.72;5032231;28;20045;-70
2021/01/30 03:17:35;;;;;;;53.38;35.20;;;;;;;2.38;63.72;100001.63;5032168;28;20136;-70
2021/01/30 03:20:03;;;;;;;53.00;35.13;;;;;;;2.41;63.77;100007.56;5032268;28;20525;-70
2021/01/30 03:22:32;;;;;;;52.75;34.28;;;;;;;2.45;63.69;100008.28;5032234;28;20452;-70
2021/01/30 03:24:59;;;;;;;51.72;33.67;;;;;;;2.48;63.50;99997.81;5032362;28;20050;-70
2021/01/30 03:27:32;;;;;;;52.00;34.47;;;;;;;2.49;63.48;100004.69;5032347;28;20050;-70
2021/01/30 03:29:59;;;;;;;55.08;33.90;;;;;;;2.50;63.62;100002.94;5032344;28;20045;-70
2021/01/30 03:32:27;;;;;;;52.15;33.15;;;;;;;2.52;63.67;100011.50;5032398;28;20124;-70
2021/01/30 03:34:56;;;;;;;55.90;35.20;;;;;;;2.52;63.63;100003.75;5032410;28;20091;-70
2021/01/30 03:37:23;;;;;;;61.92;35.97;;;;;;;2.51;63.73;100000.28;5032397;28;20125;-70
2021/01/30 03:39:49;;;;;;;53.80;35.63;;;;;;;2.52;63.82;100011.50;5031989;28;20045;-70
2021/01/30 03:42:16;;;;;;;54.40;36.17;;;;;;;2.52;63.93;100035.66;5032116;28;20134;-70
2021/01/30 03:44:42;;;;;;;54.08;35.78;;;;;;;2.53;64.06;100041.69;5032072;28;20041;-70
2021/01/30 03:47:08;;;;;;;57.58;36.97;;;;;;;2.50;63.87;100027.09;5035095;28;20053;-70
2021/01/30 03:49:34;;;;;;;52.50;36.13;;;;;;;2.50;63.92;100041.78;5036229;28;20053;-70
2021/01/30 03:52:01;;;;;;;57.42;36.17;;;;;;;2.51;64.11;100048.66;5036299;28;20049;-70
2021/01/30 03:54:27;;;;;;;56.38;37.00;;;;;;;2.50;64.02;100054.72;5035868;28;20091;-70
2021/01/30 03:56:53;;;;;;;52.67;34.85;;;;;;;2.53;64.24;100062.41;5036010;28;20045;-70
2021/01/30 03:59:20;;;;;;;58.55;34.25;;;;;;;2.53;64.34;100065.00;5036054;28;20048;-70
2021/01/30 04:01:47;;;;;;;54.33;35.28;;;;;;;2.53;64.36;100065.00;5034825;28;20049;-70
2021/01/30 04:04:14;;;;;;;50.70;32.17;;;;;;;2.52;64.32;100056.38;5031210;28;20057;-70
2021/01/30 04:06:48;;;;;;;46.75;32.30;;;;;;;2.51;64.42;100051.25;5032321;28;20103;-69
2021/01/30 04:09:16;;;;;;;49.63;32.63;;;;;;;2.52;64.51;100058.13;5032220;28;20041;-70
2021/01/30 04:11:43;;;;;;;52.17;32.60;;;;;;;2.51;64.42;100051.25;5032064;28;20050;-70
2021/01/30 04:14:09;;;;;;;52.13;32.17;;;;;;;2.51;64.53;100039.13;5032304;28;20045;-69
2021/01/30 04:16:36;;;;;;;52.53;33.55;;;;;;;2.51;64.58;100049.50;5031951;28;20076;-70
2021/01/30 04:19:03;;;;;;;52.42;34.40;;;;;;;2.53;64.56;100057.22;5032146;28;20057;-70
2021/01/30 04:21:30;;;;;;;46.67;31.50;;;;;;;2.54;64.82;100056.31;5032033;28;20370;-70
2021/01/30 04:23:56;;;;;;;50.25;33.30;;;;;;;2.53;64.91;100052.06;5031803;28;20056;-70
2021/01/30 04:26:23;;;;;;;53.97;32.42;;;;;;;2.53;64.86;100042.53;5031902;28;20053;-69
2021/01/30 04:28:51;;;;;;;53.58;33.88;;;;;;;2.53;64.91;100039.94;5031909;28;20049;-69
2021/01/30 04:31:18;;;;;;;51.20;34.40;;;;;;;2.53;64.90;100036.50;5032082;28;20052;-70
2021/01/30 04:33:46;;;;;;;50.13;33.13;;;;;;;2.52;64.71;100042.59;5031539;28;20056;-70
2021/01/30 04:36:13;;;;;;;51.90;33.78;;;;;;;2.50;65.18;100037.47;5031620;28;20049;-69
2021/01/30 04:38:39;;;;;;;52.83;33.58;;;;;;;2.50;65.20;100023.66;5031647;28;20068;-70
2021/01/30 04:41:10;;;;;;;47.17;32.03;;;;;;;2.51;65.18;100027.94;5031859;28;20065;-70
2021/01/30 04:43:46;;;;;;;48.97;31.05;;;;;;;2.53;65.30;100026.16;5031825;28;20053;-70
2021/01/30 04:46:41;;;;;;;47.85;30.45;;;;;;;2.55;65.35;100032.09;5031575;28;20167;-70
2021/01/30 04:49:26;;;;;;;49.88;31.27;;;;;;;2.55;65.40;100042.47;5031327;28;20482;-69
2021/01/30 04:52:07;;;;;;;45.55;29.73;;;;;;;2.55;65.48;100039.88;5031959;28;20049;-70
2021/01/30 04:54:39;;;;;;;46.30;29.27;;;;;;;2.56;65.72;100033.81;5031457;28;20049;-69
2021/01/30 04:57:26;;;;;;;49.55;30.75;;;;;;;2.57;65.57;100045.84;5031286;28;20041;-70
2021/01/30 05:00:30;;;;;;;48.70;31.20;;;;;;;2.56;65.55;100051.94;5031161;28;20052;-70
2021/01/30 05:03:15;;;;;;;53.08;32.70;;;;;;;2.51;65.43;100038.31;5031417;28;20049;-69
2021/01/30 05:05:46;;;;;;;49.47;30.92;;;;;;;2.49;65.51;100038.34;5031050;28;20055;-70
2021/01/30 05:08:32;;;;;;;46.60;32.20;;;;;;;2.47;65.19;100036.72;5031290;28;20042;-70
2021/01/30 05:11:04;;;;;;;44.45;30.35;;;;;;;2.45;65.17;100042.78;5031110;28;20052;-69
2021/01/30 05:13:36;;;;;;;44.83;28.83;;;;;;;2.44;65.05;100040.25;5029948;28;20486;-70
2021/01/30 05:16:07;;;;;;;45.72;29.95;;;;;;;2.41;64.89;100048.13;5031377;28;20172;-70
2021/01/30 05:18:50;;;;;;;49.97;30.77;;;;;;;2.36;64.75;100037.94;5031213;28;20399;-69
2021/01/30 05:21:34;;;;;;;45.78;29.42;;;;;;;2.35;64.55;100036.25;5030945;28;20049;-70
2021/01/30 05:24:00;;;;;;;45.50;28.52;;;;;;;2.35;64.54;100028.47;5031087;28;20061;-70
2021/01/30 05:26:46;;;;;;;44.90;29.38;;;;;;;2.36;64.38;100024.13;5030712;28;20042;-70
2021/01/30 05:29:14;;;;;;;44.45;30.02;;;;;;;2.36;64.44;100025.00;5030806;28;20085;-69
2021/01/30 05:31:58;;;;;;;48.00;28.75;;;;;;;2.36;64.42;100024.13;5030768;28;20587;-70
2021/01/30 05:34:31;;;;;;;46.67;28.38;;;;;;;2.33;64.12;100027.66;5030658;28;20474;-70
2021/01/30 05:37:03;;;;;;;43.17;28.48;;;;;;;2.30;64.16;100030.38;5030770;28;20049;-70
2021/01/30 05:40:03;;;;;;;41.38;28.52;;;;;;;2.28;63.94;100035.59;5030411;28;20041;-70
2021/01/30 05:42:39;;;;;;;44.35;30.40;;;;;;;2.21;63.82;100036.72;5030501;28;20041;-69
2021/01/30 05:45:33;;;;;;;45.72;29.10;;;;;;;2.21;63.76;100046.19;5030516;28;20057;-69
2021/01/30 05:48:00;;;;;;;42.30;28.73;;;;;;;2.19;63.67;100050.59;5030398;28;20076;-70
2021/01/30 05:50:45;;;;;;;40.25;28.25;;;;;;;2.20;63.74;100057.47;5030464;28;20056;-69
2021/01/30 05:53:15;;;;;;;46.78;29.25;;;;;;;2.20;63.60;100063.47;5030367;28;20049;-70
2021/01/30 05:55:41;;;;;;;40.30;28.25;;;;;;;2.20;63.58;100062.66;5030051;28;20049;-70
2021/01/30 05:58:16;;;;;;;41.55;28.85;;;;;;;2.21;63.48;100072.09;5030368;28;20063;-70
2021/01/30 06:00:42;;;;;;;41.55;27.23;;;;;;;2.20;63.72;100071.25;5029971;28;20045;-70
2021/01/30 06:03:14;;;;;;;46.92;27.92;;;;;;;2.20;63.68;100086.78;5030087;28;20045;-70
2021/01/30 06:05:49;;;;;;;44.70;28.67;;;;;;;2.19;63.81;100079.91;5030113;28;20053;-70
2021/01/30 06:08:20;;;;;;;42.05;27.83;;;;;;;2.20;63.78;100084.19;5030238;28;20050;-69
2021/01/30 06:10:51;;;;;;;40.17;27.88;;;;;;;2.17;63.69;100084.31;5029103;28;20053;-70
2021/01/30 06:13:24;;;;;;;42.85;27.42;;;;;;;2.13;63.80;100072.34;5030008;28;20045;-69
2021/01/30 06:15:57;;;;;;;45.10;29.50;;;;;;;2.14;63.87;100075.78;5029709;28;20049;-70
2021/01/30 06:18:26;;;;;;;40.30;27.48;;;;;;;2.15;63.66;100065.38;5030166;28;20045;-70
2021/01/30 06:21:02;;;;;;;46.60;28.38;;;;;;;2.15;63.82;100062.78;5029682;28;20092;-70
2021/01/30 06:23:28;;;;;;;44.08;28.67;;;;;;;2.15;63.81;100060.19;5029856;28;20045;-69
2021/01/30 06:26:05;;;;;;;44.67;27.45;;;;;;;2.14;63.78;100065.44;5029562;28;20053;-70
2021/01/30 06:28:34;;;;;;;41.63;27.42;;;;;;;2.14;63.90;100050.75;5029641;28;20053;-70
2021/01/30 06:31:15;;;;;;;39.40;26.55;;;;;;;2.15;63.99;100044.66;5029692;28;20042;-70
2021/01/30 06:33:50;;;;;;;45.28;28.92;;;;;;;2.15;64.12;100036.91;5029735;28;20494;-70
2021/01/30 06:36:27;;;;;;;45.58;29.17;;;;;;;2.18;64.39;100025.59;5029545;28;20057;-70
2021/01/30 06:38:53;;;;;;;47.47;29.17;;;;;;;2.18;64.48;100016.09;5029949;28;20105;-70
2021/01/30 06:41:30;;;;;;;43.03;29.55;;;;;;;2.21;64.62;100020.31;5029402;28;20501;-69
2021/01/30 06:44:30;;;;;;;45.45;28.00;;;;;;;2.23;64.67;100021.94;5029434;28;20053;-69
2021/01/30 06:47:16;;;;;;;45.72;28.33;;;;;;;2.24;64.86;100023.66;5029387;28;20045;-70
2021/01/30 06:49:48;;;;;;;44.58;29.95;;;;;;;2.24;64.85;100013.28;5029278;28;20080;-70
2021/01/30 06:52:24;;;;;;;47.97;28.30;;;;;;;2.22;64.67;100015.09;5029451;28;20401;-69
2021/01/30 06:55:05;;;;;;;41.92;28.55;;;;;;;2.19;64.60;100014.34;5029313;28;20056;-69
2021/01/30 06:57:48;;;;;;;41.88;27.27;;;;;;;2.18;64.50;100017.84;5029059;28;20048;-70
2021/01/30 07:00:17;;;;;;;45.08;27.88;;;;;;;2.17;64.58;100036.84;5029317;28;20058;-70
2021/01/30 07:02:46;;;;;;;39.05;27.55;;;;;;;2.14;64.33;100045.56;5027763;28;20437;-69
2021/01/30 07:05:24;;;;;;;39.70;26.25;;;;;;;2.14;64.19;100039.56;5029439;28;20064;-70
2021/01/30 07:08:15;;;;;;;42.95;27.75;;;;;;;2.14;64.38;100029.19;5029077;28;20517;-70
2021/01/30 07:10:47;;;;;;;49.15;28.27;;;;;;;2.16;64.17;100033.44;5028942;28;20060;-69
2021/01/30 07:13:30;;;;;;;53.45;28.63;;;;;;;2.18;64.36;100041.97;5028923;28;20049;-70
2021/01/30 07:16:02;;;;;;;46.60;27.30;;;;;;;2.21;64.41;100031.53;5027898;28;20458;-70
2021/01/30 07:18:40;;;;;;;44.63;29.23;;;;;;;2.22;64.37;100022.88;5028857;28;20409;-70
2021/01/30 07:21:16;;;;;;;54.75;33.92;;;;;;;2.26;64.57;100019.28;5028741;28;20501;-70
2021/01/30 07:23:49;;;;;;;60.63;35.78;;;;;;;2.30;64.61;100020.03;5028708;28;20045;-70
2021/01/30 07:26:40;;;;;;;65.80;36.80;;;;;;;2.37;64.61;100018.88;5029090;28;20053;-69
2021/01/30 07:29:13;;;;;;;58.42;34.53;;;;;;;2.45;64.91;100009.13;5029121;28;20513;-70
2021/01/30 07:31:46;;;;;;;57.08;34.58;;;;;;;2.50;64.75;100011.56;5029002;28;20487;-69
2021/01/30 07:34:29;;;;;;;51.88;32.83;;;;;;;2.52;64.71;100003.75;5028903;28;20129;-70
2021/01/30 07:37:11;;;;;;;51.00;32.30;;;;;;;2.56;64.98;99997.53;5028767;28;20120;-69
2021/01/30 07:39:52;;;;;;;48.65;31.70;;;;;;;2.57;65.04;100005.25;5028910;28;20054;-69
2021/01/30 07:42:44;;;;;;;49.75;29.25;;;;;;;2.62;65.18;100018.06;5028561;28;20048;-70
2021/01/30 07:45:29;;;;;;;49.55;29.38;;;;;;;2.67;65.29;100020.50;5028166;28;20042;-66
2021/01/30 07:48:11;;;;;;;53.40;31.02;;;;;;;2.68;65.03;99999.72;5009039;28;20050;-66
2021/01/30 07:50:42;;;;;;;47.50;30.85;;;;;;;2.72;65.24;100008.22;5008998;28;20058;-66
2021/01/30 07:53:14;;;;;;;42.70;28.13;;;;;;;2.81;65.30;99994.91;5009044;28;20057;-67
2021/01/30 07:56:14;;;;;;;42.97;25.58;;;;;;;2.97;65.09;100004.72;5008958;28;20491;-67
2021/01/30 07:59:18;;;;;;;36.10;24.08;;;;;;;3.13;65.05;99999.81;5008874;28;20096;-67
2021/01/30 08:01:59;;;;;;;38.78;24.42;;;;;;;3.24;64.69;99989.88;5008690;28;20057;-67
2021/01/30 08:04:34;;;;;;;41.28;24.95;;;;;;;3.39;64.86;99999.66;5026328;28;20045;-67
2021/01/30 08:07:24;;;;;;;42.60;25.42;;;;;;;3.57;64.45;100003.28;5028896;28;20048;-68
2021/01/30 08:10:00;;;;;;;43.58;26.13;;;;;;;3.73;64.27;99995.72;5027680;28;20231;-68
2021/01/30 08:12:58;;;;;;;38.47;25.38;;;;;;;3.91;64.04;99994.13;5028593;28;20046;-66
2021/01/30 08:15:53;;;;;;;36.80;23.83;;;;;;;4.16;63.71;99995.69;5025547;28;20038;-68
2021/01/30 08:18:34;;;;;;;32.58;21.98;;;;;;;4.34;63.34;99991.50;5027806;28;20539;-68
2021/01/30 08:21:16;;;;;;;36.95;22.77;;;;;;;4.48;63.10;99992.63;5027676;28;20052;-68
2021/01/30 08:24:15;;;;;;;38.10;23.67;;;;;;;4.63;62.80;99978.13;5027603;28;20050;-68
2021/01/30 08:26:52;;;;;;;34.47;23.00;;;;;;;4.74;62.87;99986.28;5027873;28;20050;-68
2021/01/30 08:29:20;;;;;;;38.22;23.83;;;;;;;4.80;62.53;99996.41;5027934;28;20042;-68
2021/01/30 08:31:46;;;;;;;38.13;24.95;;;;;;;4.83;62.36;100009.25;5025493;28;20060;-67
2021/01/30 08:34:18;;;;;;;64.50;32.72;;;;;;;4.82;62.31;100012.78;5030341;28;20041;-69
2021/01/30 08:37:11;;;;;;;56.97;29.73;;;;;;;4.78;62.45;100019.03;5028914;28;20060;-65
2021/01/30 08:40:03;;;;;;;88.10;38.88;;;;;;;4.84;62.38;100016.16;5026437;28;20407;-66
2021/01/30 08:42:32;;;;;;;87.00;42.25;;;;;;;4.91;62.52;100014.13;5029101;28;20111;-66
2021/01/30 08:45:06;;;;;;;53.88;31.40;;;;;;;5.01;62.44;100024.94;5031092;28;20064;-65
2021/01/30 08:47:34;;;;;;;80.18;42.42;;;;;;;5.17;62.21;100020.75;5029431;28;20187;-67
2021/01/30 08:50:04;;;;;;;54.10;33.88;;;;;;;5.27;61.82;100008.16;5031114;28;20056;-70
2021/01/30 08:52:42;;;;;;;57.55;34.50;;;;;;;5.35;61.72;100018.22;5031025;28;20116;-68
2021/01/30 08:55:44;;;;;;;68.97;41.33;;;;;;;5.39;61.52;100025.78;5030732;28;20049;-67
2021/01/30 08:58:37;;;;;;;64.18;38.85;;;;;;;5.49;61.21;100027.97;5028484;28;20041;-71
2021/01/30 09:01:20;;;;;;;55.78;35.00;;;;;;;5.59;61.12;100036.16;5011509;28;20058;-68
2021/01/30 09:03:49;;;;;;;48.88;31.85;;;;;;;5.61;61.10;100045.63;5030028;28;20575;-71
2021/01/30 09:06:40;;;;;;;47.33;32.17;;;;;;;5.54;60.96;100044.22;5031040;28;20048;-71
2021/01/30 09:09:17;;;;;;;50.15;31.80;;;;;;;5.52;61.06;100038.22;5031316;28;20491;-70
2021/01/30 09:11:53;;;;;;;49.63;30.67;;;;;;;5.60;60.99;100027.44;5030865;28;20041;-71
2021/01/30 09:14:19;;;;;;;50.95;30.17;;;;;;;5.66;61.12;100016.75;5030890;28;20048;-70
2021/01/30 09:16:58;;;;;;;46.17;30.35;;;;;;;5.83;60.85;100006.38;5030450;28;20064;-67
2021/01/30 09:19:44;;;;;;;42.67;28.35;;;;;;;6.04;60.60;100011.47;5027478;28;20437;-69
2021/01/30 09:22:19;;;;;;;47.55;29.92;;;;;;;6.28;60.15;100001.56;5029565;28;20049;-68
2021/01/30 09:25:09;;;;;;;47.70;28.52;;;;;;;6.36;60.00;100004.66;5030186;28;20056;-70
2021/01/30 09:27:52;;;;;;;45.85;27.50;;;;;;;6.34;60.14;100011.69;5027693;28;20496;-69
2021/01/30 09:30:41;;;;;;;36.75;25.17;;;;;;;6.35;60.00;100015.97;5027657;28;20041;-68
2021/01/30 09:33:23;;;;;;;37.38;26.33;;;;;;;6.46;59.76;100011.97;5029044;28;20463;-70
2021/01/30 09:35:54;;;;;;;36.47;25.45;;;;;;;6.55;59.43;100011.50;5029121;28;20064;-68
2021/01/30 09:38:26;;;;;;;38.67;24.38;;;;;;;6.63;59.41;100022.38;5028353;28;20037;-68
2021/01/30 09:41:20;;;;;;;40.47;25.20;;;;;;;6.65;59.07;100028.38;5029621;28;20042;-68
2021/01/30 09:43:47;;;;;;;37.72;25.88;;;;;;;6.68;59.13;100004.75;5027962;28;20053;-68
2021/01/30 09:46:20;;;;;;;37.88;25.33;;;;;;;6.67;59.11;100002.22;5029417;28;20041;-67
2021/01/30 09:48:47;;;;;;;44.05;26.60;;;;;;;6.64;59.07;100008.44;5029497;28;20053;-66
2021/01/30 09:51:13;;;;;;;40.60;27.27;;;;;;;6.76;59.13;100016.53;5025743;28;20410;-70
2021/01/30 09:53:52;;;;;;;40.33;26.70;;;;;;;6.94;58.77;100025.16;5029676;28;20490;-70
2021/01/30 09:56:21;;;;;;;41.88;28.27;;;;;;;7.18;58.32;100021.22;5028920;28;20449;-66
2021/01/30 09:58:55;;;;;;;41.38;27.23;;;;;;;7.40;57.89;100027.88;5027029;28;20046;-69
2021/01/30 10:01:25;;;;;;;41.75;28.58;;;;;;;7.60;57.72;100044.22;5029124;28;20053;-69
2021/01/30 10:03:53;;;;;;;48.60;29.10;;;;;;;7.70;57.50;100058.44;5029807;28;20478;-71
2021/01/30 10:06:25;;;;;;;43.28;29.48;;;;;;;7.73;57.19;100070.47;5029533;28;20049;-70
2021/01/30 10:08:52;;;;;;;42.72;29.70;;;;;;;7.79;57.06;100080.59;5028699;28;20482;-67
2021/01/30 10:11:21;;;;;;;44.22;28.48;;;;;;;7.86;56.83;100074.09;5029505;28;20602;-66
2021/01/30 10:13:54;;;;;;;48.30;32.20;;;;;;;7.94;56.36;100076.28;5027364;28;20076;-68
2021/01/30 10:16:23;;;;;;;42.85;28.60;;;;;;;8.03;56.22;100051.41;5029331;28;20061;-68
2021/01/30 10:19:11;;;;;;;44.22;30.40;;;;;;;8.16;55.80;100040.16;5030094;28;20046;-67
2021/01/30 10:21:40;;;;;;;47.25;30.63;;;;;;;8.33;55.45;100048.78;5029618;28;20615;-68
2021/01/30 10:24:30;;;;;;;40.60;29.05;;;;;;;8.54;55.03;100049.31;5029834;28;20417;-69
2021/01/30 10:27:31;;;;;;;39.95;27.80;;;;;;;8.74;54.96;100047.31;5029447;28;20049;-68
2021/01/30 10:29:58;;;;;;;43.20;29.92;;;;;;;8.87;54.27;100053.44;5028702;28;20049;-68
2021/01/30 10:32:51;;;;;;;40.72;28.98;;;;;;;8.90;53.95;100041.97;5029707;28;20046;-66
2021/01/30 10:35:32;;;;;;;40.17;27.65;;;;;;;8.95;54.05;100022.44;5029270;28;20052;-67
2021/01/30 10:38:10;;;;;;;37.13;27.55;;;;;;;9.13;53.67;100028.31;5029587;28;20045;-68
2021/01/30 10:40:40;;;;;;;38.42;28.05;;;;;;;9.26;53.48;100011.84;5029426;28;20053;-67
2021/01/30 10:43:17;;;;;;;39.08;27.25;;;;;;;9.28;53.51;99997.72;5029812;28;20043;-68
2021/01/30 10:45:51;;;;;;;38.72;27.35;;;;;;;9.37;53.67;100003.28;5029286;28;20052;-67
2021/01/30 10:48:22;;;;;;;34.55;26.35;;;;;;;9.42;53.63;99999.47;5029540;28;20049;-67
2021/01/30 10:50:48;;;;;;;36.10;26.85;;;;;;;9.55;53.46;100007.38;5029137;28;20410;-66
2021/01/30 10:53:30;;;;;;;41.15;27.77;;;;;;;9.53;53.54;100005.78;5029227;28;20143;-66
2021/01/30 10:55:56;;;;;;;36.08;27.67;;;;;;;9.63;53.67;99994.59;5027127;28;20121;-67
2021/01/30 10:58:25;;;;;;;37.15;27.77;;;;;;;9.73;53.51;99984.38;5027281;28;20045;-67
2021/01/30 11:01:11;;;;;;;34.95;27.85;;;;;;;9.79;53.61;99988.38;5028862;28;20053;-68
2021/01/30 11:03:43;;;;;;;37.75;27.80;;;;;;;9.81;53.44;99981.25;5029306;28;20414;-66
2021/01/30 11:06:35;;;;;;;37.53;28.92;;;;;;;9.76;53.71;99983.31;5029029;28;20473;-67
2021/01/30 11:09:29;;;;;;;35.05;26.45;;;;;;;9.64;53.82;99985.81;5027484;28;20497;-66
2021/01/30 11:12:17;;;;;;;34.35;27.35;;;;;;;9.48;54.19;99980.75;5028512;28;20049;-67
2021/01/30 11:14:44;;;;;;;37.25;26.83;;;;;;;9.36;54.59;99980.66;5027045;28;20045;-67
2021/01/30 11:17:26;;;;;;;37.45;28.55;;;;;;;9.22;55.01;99977.16;5028387;28;20045;-66
2021/01/30 11:19:53;;;;;;;38.13;27.60;;;;;;;9.10;55.05;99985.78;5028480;28;20078;-65
2021/01/30 11:22:24;;;;;;;37.25;28.23;;;;;;;8.94;55.37;99981.50;5028334;28;20042;-66
2021/01/30 11:25:06;;;;;;;34.38;26.35;;;;;;;8.81;55.72;99968.34;5028305;28;20041;-64
2021/01/30 11:27:37;;;;;;;40.58;29.88;;;;;;;8.86;56.54;99973.28;5027065;28;20038;-70
2021/01/30 11:30:20;;;;;;;39.42;29.48;;;;;;;8.83;56.40;99976.09;5028446;28;20410;-66
2021/01/30 11:33:15;;;;;;;38.05;29.13;;;;;;;8.77;56.26;99959.03;5026421;28;20041;-66
2021/01/30 11:35:45;;;;;;;44.20;32.13;;;;;;;8.68;56.09;99948.28;5038182;28;20052;-65
2021/01/30 11:38:17;;;;;;;43.83;31.73;;;;;;;8.59;56.59;99945.28;5042705;28;20048;-67
2021/01/30 11:40:44;;;;;;;41.83;30.60;;;;;;;8.59;56.55;99944.44;5031105;28;20410;-66
2021/01/30 11:43:12;;;;;;;49.55;33.55;;;;;;;8.59;56.54;99942.66;5028691;28;20041;-66
2021/01/30 11:45:38;;;;;;;47.22;33.40;;;;;;;8.65;56.50;99933.63;5034052;28;20137;-67
2021/01/30 11:48:05;;;;;;;46.95;33.95;;;;;;;8.64;56.55;99935.38;5028468;28;20470;-67
2021/01/30 11:50:31;;;;;;;40.53;31.42;;;;;;;8.60;56.67;99926.03;5032824;28;20037;-66
2021/01/30 11:53:14;;;;;;;42.35;31.55;;;;;;;8.54;56.87;99917.75;5044045;28;20049;-67
2021/01/30 11:55:41;;;;;;;41.55;29.50;;;;;;;8.50;57.05;99919.69;5019770;28;20327;-67